Meers, Oklahoma
Current Conditions -  °F | °C
As of 3:58 AM on Sunday 25 Jan 2015 (Local Time) from KFSI Reporting Station
Haze Haze  
Wind Chill: 10°   Ceiling: Unl
Heat Index: 10°   Visibility: 6mi
Dew Point:   Wind: 10mph
Humidity: 57%   Direction: 330°NNW
Pressure: 29.95"   Gusts: NA
Location:  34.78°N, 98.58°W
Report Text: KFSI 250958Z AUTO 33009KT 6SM HZ CLR 10/02 A2995 RMK AO2 SLP140 T01030020
Loading
Personal Weather Stations






























Interactive Weather Map New forecast layout! Learn more

10-Day Weather Forecast

Advertisements
Track Severe Weather on mobile